sensor_id;sensor_type;location;lat;lon;timestamp;P1;durP1;ratioP1;P2;durP2;ratioP2
22794;SDS011;11564;50.920;11.612;2022-12-07T00:01:15;7.20;;;5.60;;
22794;SDS011;11564;50.920;11.612;2022-12-07T00:03:43;10.60;;;5.30;;
22794;SDS011;11564;50.920;11.612;2022-12-07T00:06:12;6.63;;;5.90;;
22794;SDS011;11564;50.920;11.612;2022-12-07T00:08:38;5.87;;;4.83;;
22794;SDS011;11564;50.920;11.612;2022-12-07T00:11:06;7.07;;;5.10;;
22794;SDS011;11564;50.920;11.612;2022-12-07T00:13:36;6.50;;;5.67;;
22794;SDS011;11564;50.920;11.612;2022-12-07T00:18:36;6.17;;;4.83;;
22794;SDS011;11564;50.920;11.612;2022-12-07T00:21:03;6.67;;;5.23;;
22794;SDS011;11564;50.920;11.612;2022-12-07T00:23:30;5.77;;;5.23;;
22794;SDS011;11564;50.920;11.612;2022-12-07T00:26:02;5.40;;;4.10;;
22794;SDS011;11564;50.920;11.612;2022-12-07T00:28:29;4.50;;;4.10;;
22794;SDS011;11564;50.920;11.612;2022-12-07T00:31:05;7.53;;;5.10;;
22794;SDS011;11564;50.920;11.612;2022-12-07T00:33:35;5.73;;;4.53;;
22794;SDS011;11564;50.920;11.612;2022-12-07T00:36:02;4.70;;;4.27;;
22794;SDS011;11564;50.920;11.612;2022-12-07T00:38:31;4.70;;;4.17;;
22794;SDS011;11564;50.920;11.612;2022-12-07T00:40:58;4.30;;;3.90;;
22794;SDS011;11564;50.920;11.612;2022-12-07T00:43:25;4.53;;;4.10;;
22794;SDS011;11564;50.920;11.612;2022-12-07T00:45:52;5.73;;;4.20;;
22794;SDS011;11564;50.920;11.612;2022-12-07T00:48:18;8.40;;;4.07;;
22794;SDS011;11564;50.920;11.612;2022-12-07T00:50:44;4.67;;;3.20;;
22794;SDS011;11564;50.920;11.612;2022-12-07T00:53:09;3.90;;;3.60;;
22794;SDS011;11564;50.920;11.612;2022-12-07T00:55:35;4.97;;;4.53;;
22794;SDS011;11564;50.920;11.612;2022-12-07T00:58:01;3.87;;;3.57;;
22794;SDS011;11564;50.920;11.612;2022-12-07T01:00:27;3.83;;;3.60;;
22794;SDS011;11564;50.920;11.612;2022-12-07T01:02:53;6.93;;;3.87;;
22794;SDS011;11564;50.920;11.612;2022-12-07T01:05:18;4.23;;;2.93;;
22794;SDS011;11564;50.920;11.612;2022-12-07T01:07:44;5.40;;;3.67;;
22794;SDS011;11564;50.920;11.612;2022-12-07T01:10:11;5.67;;;4.80;;
22794;SDS011;11564;50.920;11.612;2022-12-07T01:12:37;4.37;;;3.97;;
22794;SDS011;11564;50.920;11.612;2022-12-07T01:15:03;6.00;;;4.00;;
22794;SDS011;11564;50.920;11.612;2022-12-07T01:17:29;7.57;;;4.50;;
22794;SDS011;11564;50.920;11.612;2022-12-07T01:19:55;4.90;;;4.33;;
22794;SDS011;11564;50.920;11.612;2022-12-07T01:22:20;4.83;;;4.43;;
22794;SDS011;11564;50.920;11.612;2022-12-07T01:24:46;4.30;;;3.83;;
22794;SDS011;11564;50.920;11.612;2022-12-07T01:27:12;4.17;;;3.77;;
22794;SDS011;11564;50.920;11.612;2022-12-07T01:29:38;4.03;;;3.40;;
22794;SDS011;11564;50.920;11.612;2022-12-07T01:32:04;3.73;;;3.43;;
22794;SDS011;11564;50.920;11.612;2022-12-07T01:34:30;4.93;;;3.50;;
22794;SDS011;11564;50.920;11.612;2022-12-07T01:36:56;4.57;;;4.13;;
22794;SDS011;11564;50.920;11.612;2022-12-07T01:39:22;4.17;;;3.80;;
22794;SDS011;11564;50.920;11.612;2022-12-07T01:41:48;3.60;;;3.27;;
22794;SDS011;11564;50.920;11.612;2022-12-07T01:44:15;6.03;;;4.67;;
22794;SDS011;11564;50.920;11.612;2022-12-07T01:54:51;6.20;;;3.23;;
22794;SDS011;11564;50.920;11.612;2022-12-07T01:57:19;3.40;;;3.10;;
22794;SDS011;11564;50.920;11.612;2022-12-07T01:59:45;4.70;;;3.33;;
22794;SDS011;11564;50.920;11.612;2022-12-07T02:02:27;6.57;;;3.57;;
22794;SDS011;11564;50.920;11.612;2022-12-07T02:04:59;2.97;;;2.77;;
22794;SDS011;11564;50.920;11.612;2022-12-07T02:07:26;8.23;;;3.30;;
22794;SDS011;11564;50.920;11.612;2022-12-07T02:09:53;3.60;;;2.93;;
22794;SDS011;11564;50.920;11.612;2022-12-07T02:12:19;3.60;;;2.37;;
22794;SDS011;11564;50.920;11.612;2022-12-07T02:14:46;2.80;;;2.60;;
22794;SDS011;11564;50.920;11.612;2022-12-07T02:20:00;4.90;;;2.70;;
22794;SDS011;11564;50.920;11.612;2022-12-07T02:28:26;3.07;;;2.87;;
22794;SDS011;11564;50.920;11.612;2022-12-07T02:31:02;2.10;;;2.00;;
22794;SDS011;11564;50.920;11.612;2022-12-07T02:33:34;4.80;;;2.90;;
22794;SDS011;11564;50.920;11.612;2022-12-07T02:36:10;1.87;;;1.77;;
22794;SDS011;11564;50.920;11.612;2022-12-07T02:39:33;2.57;;;2.47;;
22794;SDS011;11564;50.920;11.612;2022-12-07T02:41:44;2.30;;;2.20;;
22794;SDS011;11564;50.920;11.612;2022-12-07T02:44:14;2.90;;;2.67;;
22794;SDS011;11564;50.920;11.612;2022-12-07T02:46:45;3.50;;;2.87;;
22794;SDS011;11564;50.920;11.612;2022-12-07T02:49:23;2.70;;;2.50;;
22794;SDS011;11564;50.920;11.612;2022-12-07T02:51:51;2.90;;;2.43;;
22794;SDS011;11564;50.920;11.612;2022-12-07T02:54:18;2.47;;;2.30;;
22794;SDS011;11564;50.920;11.612;2022-12-07T03:00:05;1.90;;;1.80;;
22794;SDS011;11564;50.920;11.612;2022-12-07T03:07:54;2.73;;;2.47;;
22794;SDS011;11564;50.920;11.612;2022-12-07T03:16:12;5.70;;;3.17;;
22794;SDS011;11564;50.920;11.612;2022-12-07T03:18:52;2.40;;;2.30;;
22794;SDS011;11564;50.920;11.612;2022-12-07T03:21:26;3.10;;;2.80;;
22794;SDS011;11564;50.920;11.612;2022-12-07T03:23:57;2.70;;;2.50;;
22794;SDS011;11564;50.920;11.612;2022-12-07T03:26:28;3.27;;;2.37;;
22794;SDS011;11564;50.920;11.612;2022-12-07T03:29:00;2.87;;;2.63;;
22794;SDS011;11564;50.920;11.612;2022-12-07T03:31:33;2.95;;;2.80;;
22794;SDS011;11564;50.920;11.612;2022-12-07T03:34:11;3.40;;;3.10;;
22794;SDS011;11564;50.920;11.612;2022-12-07T03:39:26;3.23;;;3.03;;
22794;SDS011;11564;50.920;11.612;2022-12-07T03:42:02;3.10;;;2.90;;
22794;SDS011;11564;50.920;11.612;2022-12-07T03:44:29;3.50;;;3.30;;
22794;SDS011;11564;50.920;11.612;2022-12-07T03:54:39;5.33;;;4.93;;
22794;SDS011;11564;50.920;11.612;2022-12-07T03:57:21;4.90;;;4.40;;
22794;SDS011;11564;50.920;11.612;2022-12-07T03:59:49;5.90;;;5.07;;
22794;SDS011;11564;50.920;11.612;2022-12-07T04:02:16;5.03;;;4.53;;
22794;SDS011;11564;50.920;11.612;2022-12-07T04:04:41;9.33;;;4.60;;
22794;SDS011;11564;50.920;11.612;2022-12-07T04:07:08;6.27;;;5.43;;
22794;SDS011;11564;50.920;11.612;2022-12-07T04:09:34;5.43;;;4.93;;
22794;SDS011;11564;50.920;11.612;2022-12-07T04:12:00;5.53;;;5.03;;
22794;SDS011;11564;50.920;11.612;2022-12-07T04:14:25;5.90;;;5.30;;
22794;SDS011;11564;50.920;11.612;2022-12-07T04:16:52;6.50;;;5.17;;
22794;SDS011;11564;50.920;11.612;2022-12-07T04:19:27;5.33;;;4.87;;
22794;SDS011;11564;50.920;11.612;2022-12-07T04:21:55;5.97;;;5.47;;
22794;SDS011;11564;50.920;11.612;2022-12-07T04:24:22;5.07;;;4.67;;
22794;SDS011;11564;50.920;11.612;2022-12-07T04:26:49;5.30;;;4.90;;
22794;SDS011;11564;50.920;11.612;2022-12-07T04:29:15;5.53;;;4.73;;
22794;SDS011;11564;50.920;11.612;2022-12-07T04:31:42;5.67;;;5.17;;
22794;SDS011;11564;50.920;11.612;2022-12-07T04:34:08;6.77;;;5.50;;
22794;SDS011;11564;50.920;11.612;2022-12-07T04:36:34;5.53;;;5.03;;
22794;SDS011;11564;50.920;11.612;2022-12-07T04:39:00;6.90;;;6.00;;
22794;SDS011;11564;50.920;11.612;2022-12-07T04:41:27;6.90;;;6.13;;
22794;SDS011;11564;50.920;11.612;2022-12-07T04:44:03;6.80;;;5.57;;
22794;SDS011;11564;50.920;11.612;2022-12-07T04:46:29;7.20;;;6.20;;
22794;SDS011;11564;50.920;11.612;2022-12-07T04:48:56;7.27;;;6.27;;
22794;SDS011;11564;50.920;11.612;2022-12-07T04:51:23;7.67;;;5.60;;
22794;SDS011;11564;50.920;11.612;2022-12-07T04:53:51;6.43;;;5.77;;
22794;SDS011;11564;50.920;11.612;2022-12-07T04:56:17;6.47;;;5.87;;
22794;SDS011;11564;50.920;11.612;2022-12-07T04:58:44;7.83;;;5.50;;
22794;SDS011;11564;50.920;11.612;2022-12-07T05:01:11;5.77;;;5.20;;
22794;SDS011;11564;50.920;11.612;2022-12-07T05:03:38;5.07;;;4.67;;
22794;SDS011;11564;50.920;11.612;2022-12-07T05:06:04;5.90;;;5.37;;
22794;SDS011;11564;50.920;11.612;2022-12-07T05:08:31;6.00;;;5.20;;
22794;SDS011;11564;50.920;11.612;2022-12-07T05:10:58;5.57;;;4.97;;
22794;SDS011;11564;50.920;11.612;2022-12-07T05:13:24;5.73;;;5.23;;
22794;SDS011;11564;50.920;11.612;2022-12-07T05:15:49;5.67;;;5.00;;
22794;SDS011;11564;50.920;11.612;2022-12-07T05:18:15;7.60;;;6.20;;
22794;SDS011;11564;50.920;11.612;2022-12-07T05:20:41;5.17;;;4.77;;
22794;SDS011;11564;50.920;11.612;2022-12-07T05:23:07;6.65;;;5.53;;
22794;SDS011;11564;50.920;11.612;2022-12-07T05:25:33;6.07;;;5.20;;
22794;SDS011;11564;50.920;11.612;2022-12-07T05:27:58;6.30;;;5.57;;
22794;SDS011;11564;50.920;11.612;2022-12-07T05:30:24;6.93;;;5.60;;
22794;SDS011;11564;50.920;11.612;2022-12-07T05:32:50;6.47;;;5.87;;
22794;SDS011;11564;50.920;11.612;2022-12-07T05:35:16;8.70;;;6.00;;
22794;SDS011;11564;50.920;11.612;2022-12-07T05:37:42;6.23;;;5.60;;
22794;SDS011;11564;50.920;11.612;2022-12-07T05:40:08;5.47;;;4.97;;
22794;SDS011;11564;50.920;11.612;2022-12-07T05:42:35;6.60;;;5.90;;
22794;SDS011;11564;50.920;11.612;2022-12-07T05:45:00;7.03;;;6.27;;
22794;SDS011;11564;50.920;11.612;2022-12-07T05:47:26;6.47;;;5.77;;
22794;SDS011;11564;50.920;11.612;2022-12-07T05:49:52;7.43;;;6.03;;
22794;SDS011;11564;50.920;11.612;2022-12-07T05:52:18;8.10;;;7.17;;
22794;SDS011;11564;50.920;11.612;2022-12-07T05:54:43;6.87;;;6.20;;
22794;SDS011;11564;50.920;11.612;2022-12-07T05:57:09;6.60;;;5.90;;
22794;SDS011;11564;50.920;11.612;2022-12-07T05:59:34;7.87;;;7.07;;
22794;SDS011;11564;50.920;11.612;2022-12-07T06:02:01;9.90;;;5.60;;
22794;SDS011;11564;50.920;11.612;2022-12-07T06:04:34;6.60;;;5.90;;
22794;SDS011;11564;50.920;11.612;2022-12-07T06:07:01;8.00;;;7.07;;
22794;SDS011;11564;50.920;11.612;2022-12-07T06:09:28;7.43;;;6.73;;
22794;SDS011;11564;50.920;11.612;2022-12-07T06:11:55;7.43;;;6.47;;
22794;SDS011;11564;50.920;11.612;2022-12-07T06:14:41;9.30;;;7.27;;
22794;SDS011;11564;50.920;11.612;2022-12-07T06:17:07;7.30;;;6.60;;
22794;SDS011;11564;50.920;11.612;2022-12-07T06:19:32;8.70;;;7.83;;
22794;SDS011;11564;50.920;11.612;2022-12-07T06:21:58;9.23;;;7.77;;
22794;SDS011;11564;50.920;11.612;2022-12-07T06:24:24;12.00;;;9.50;;
22794;SDS011;11564;50.920;11.612;2022-12-07T06:26:50;11.93;;;8.97;;
22794;SDS011;11564;50.920;11.612;2022-12-07T06:29:16;10.87;;;8.97;;
22794;SDS011;11564;50.920;11.612;2022-12-07T06:31:42;14.83;;;10.50;;
22794;SDS011;11564;50.920;11.612;2022-12-07T06:34:14;13.67;;;10.13;;
22794;SDS011;11564;50.920;11.612;2022-12-07T06:36:42;15.27;;;10.90;;
22794;SDS011;11564;50.920;11.612;2022-12-07T06:39:08;10.50;;;9.13;;
22794;SDS011;11564;50.920;11.612;2022-12-07T06:41:34;11.53;;;8.50;;
22794;SDS011;11564;50.920;11.612;2022-12-07T06:44:01;13.00;;;9.83;;
22794;SDS011;11564;50.920;11.612;2022-12-07T06:46:28;12.17;;;10.40;;
22794;SDS011;11564;50.920;11.612;2022-12-07T06:48:53;14.50;;;9.83;;
22794;SDS011;11564;50.920;11.612;2022-12-07T06:51:19;15.00;;;11.73;;
22794;SDS011;11564;50.920;11.612;2022-12-07T06:53:44;14.57;;;11.30;;
22794;SDS011;11564;50.920;11.612;2022-12-07T06:56:10;14.50;;;10.20;;
22794;SDS011;11564;50.920;11.612;2022-12-07T06:58:36;13.47;;;10.27;;
22794;SDS011;11564;50.920;11.612;2022-12-07T07:01:01;12.33;;;9.70;;
22794;SDS011;11564;50.920;11.612;2022-12-07T07:03:28;15.93;;;10.90;;
22794;SDS011;11564;50.920;11.612;2022-12-07T07:05:53;23.20;;;14.23;;
22794;SDS011;11564;50.920;11.612;2022-12-07T07:08:19;18.53;;;12.97;;
22794;SDS011;11564;50.920;11.612;2022-12-07T07:10:45;19.03;;;12.70;;
22794;SDS011;11564;50.920;11.612;2022-12-07T07:13:10;15.03;;;9.83;;
22794;SDS011;11564;50.920;11.612;2022-12-07T07:15:37;19.90;;;10.30;;
22794;SDS011;11564;50.920;11.612;2022-12-07T07:18:03;16.33;;;10.67;;
22794;SDS011;11564;50.920;11.612;2022-12-07T07:20:29;16.23;;;11.43;;
22794;SDS011;11564;50.920;11.612;2022-12-07T07:22:55;17.97;;;9.57;;
22794;SDS011;11564;50.920;11.612;2022-12-07T07:25:21;18.23;;;9.23;;
22794;SDS011;11564;50.920;11.612;2022-12-07T07:27:47;11.57;;;8.30;;
22794;SDS011;11564;50.920;11.612;2022-12-07T07:30:13;15.50;;;8.77;;
22794;SDS011;11564;50.920;11.612;2022-12-07T07:32:38;9.93;;;7.67;;
22794;SDS011;11564;50.920;11.612;2022-12-07T07:35:04;12.73;;;9.00;;
22794;SDS011;11564;50.920;11.612;2022-12-07T07:37:30;10.90;;;7.40;;
22794;SDS011;11564;50.920;11.612;2022-12-07T07:39:56;7.50;;;5.90;;
22794;SDS011;11564;50.920;11.612;2022-12-07T07:42:21;10.00;;;6.60;;
22794;SDS011;11564;50.920;11.612;2022-12-07T07:44:47;8.40;;;7.23;;
22794;SDS011;11564;50.920;11.612;2022-12-07T07:47:13;9.53;;;6.23;;
22794;SDS011;11564;50.920;11.612;2022-12-07T07:49:38;11.33;;;6.63;;
22794;SDS011;11564;50.920;11.612;2022-12-07T07:52:05;7.63;;;6.00;;
22794;SDS011;11564;50.920;11.612;2022-12-07T07:54:31;11.20;;;6.93;;
22794;SDS011;11564;50.920;11.612;2022-12-07T07:56:56;6.63;;;6.00;;
22794;SDS011;11564;50.920;11.612;2022-12-07T07:59:22;7.63;;;6.33;;
22794;SDS011;11564;50.920;11.612;2022-12-07T08:01:48;7.60;;;6.00;;
22794;SDS011;11564;50.920;11.612;2022-12-07T08:04:13;6.53;;;5.57;;
22794;SDS011;11564;50.920;11.612;2022-12-07T08:06:39;10.50;;;7.23;;
22794;SDS011;11564;50.920;11.612;2022-12-07T08:09:07;7.00;;;6.10;;
22794;SDS011;11564;50.920;11.612;2022-12-07T08:11:33;11.27;;;6.50;;
22794;SDS011;11564;50.920;11.612;2022-12-07T08:13:58;7.17;;;6.07;;
22794;SDS011;11564;50.920;11.612;2022-12-07T08:16:24;11.13;;;6.33;;
22794;SDS011;11564;50.920;11.612;2022-12-07T08:18:50;6.80;;;6.10;;
22794;SDS011;11564;50.920;11.612;2022-12-07T08:21:15;11.40;;;7.70;;
22794;SDS011;11564;50.920;11.612;2022-12-07T08:23:41;9.10;;;6.00;;
22794;SDS011;11564;50.920;11.612;2022-12-07T08:26:09;8.10;;;6.10;;
22794;SDS011;11564;50.920;11.612;2022-12-07T08:28:37;7.17;;;5.73;;
22794;SDS011;11564;50.920;11.612;2022-12-07T08:31:07;7.40;;;6.17;;
22794;SDS011;11564;50.920;11.612;2022-12-07T08:33:36;7.53;;;5.40;;
22794;SDS011;11564;50.920;11.612;2022-12-07T08:36:06;6.37;;;5.73;;
22794;SDS011;11564;50.920;11.612;2022-12-07T08:38:36;6.80;;;6.10;;
22794;SDS011;11564;50.920;11.612;2022-12-07T08:41:04;4.50;;;3.97;;
22794;SDS011;11564;50.920;11.612;2022-12-07T08:43:31;4.97;;;4.53;;
22794;SDS011;11564;50.920;11.612;2022-12-07T08:46:12;10.10;;;4.70;;
22794;SDS011;11564;50.920;11.612;2022-12-07T08:48:39;6.03;;;5.40;;
22794;SDS011;11564;50.920;11.612;2022-12-07T08:51:09;4.90;;;4.40;;
22794;SDS011;11564;50.920;11.612;2022-12-07T08:53:36;6.83;;;5.43;;
22794;SDS011;11564;50.920;11.612;2022-12-07T08:56:03;5.50;;;5.00;;
22794;SDS011;11564;50.920;11.612;2022-12-07T08:58:29;7.10;;;5.30;;
22794;SDS011;11564;50.920;11.612;2022-12-07T09:00:55;5.50;;;5.00;;
22794;SDS011;11564;50.920;11.612;2022-12-07T09:03:21;6.83;;;4.73;;
22794;SDS011;11564;50.920;11.612;2022-12-07T09:05:47;7.10;;;6.33;;
22794;SDS011;11564;50.920;11.612;2022-12-07T09:08:12;5.50;;;4.97;;
22794;SDS011;11564;50.920;11.612;2022-12-07T09:10:38;8.73;;;5.97;;
22794;SDS011;11564;50.920;11.612;2022-12-07T09:13:04;6.40;;;5.00;;
22794;SDS011;11564;50.920;11.612;2022-12-07T09:15:29;5.30;;;4.80;;
22794;SDS011;11564;50.920;11.612;2022-12-07T09:17:56;5.10;;;4.60;;
22794;SDS011;11564;50.920;11.612;2022-12-07T09:20:21;6.23;;;5.03;;
22794;SDS011;11564;50.920;11.612;2022-12-07T09:22:47;4.70;;;4.30;;
22794;SDS011;11564;50.920;11.612;2022-12-07T09:25:13;5.40;;;4.37;;
22794;SDS011;11564;50.920;11.612;2022-12-07T09:27:39;5.17;;;4.40;;
22794;SDS011;11564;50.920;11.612;2022-12-07T09:30:05;4.77;;;4.27;;
22794;SDS011;11564;50.920;11.612;2022-12-07T09:32:32;7.23;;;4.10;;
22794;SDS011;11564;50.920;11.612;2022-12-07T09:34:58;6.13;;;3.80;;
22794;SDS011;11564;50.920;11.612;2022-12-07T09:37:23;4.70;;;3.40;;
22794;SDS011;11564;50.920;11.612;2022-12-07T09:39:49;6.60;;;4.47;;
22794;SDS011;11564;50.920;11.612;2022-12-07T09:42:26;4.37;;;3.70;;
22794;SDS011;11564;50.920;11.612;2022-12-07T09:44:55;4.13;;;3.73;;
22794;SDS011;11564;50.920;11.612;2022-12-07T09:47:23;7.03;;;4.13;;
22794;SDS011;11564;50.920;11.612;2022-12-07T09:49:48;4.63;;;3.77;;
22794;SDS011;11564;50.920;11.612;2022-12-07T09:52:19;3.20;;;3.00;;
22794;SDS011;11564;50.920;11.612;2022-12-07T09:54:49;4.10;;;3.23;;
22794;SDS011;11564;50.920;11.612;2022-12-07T09:57:16;5.53;;;3.07;;
22794;SDS011;11564;50.920;11.612;2022-12-07T09:59:42;3.10;;;2.80;;
22794;SDS011;11564;50.920;11.612;2022-12-07T10:04:52;6.03;;;2.90;;
22794;SDS011;11564;50.920;11.612;2022-12-07T10:07:18;3.10;;;2.80;;
22794;SDS011;11564;50.920;11.612;2022-12-07T10:09:44;2.77;;;2.57;;
22794;SDS011;11564;50.920;11.612;2022-12-07T10:12:11;5.10;;;2.70;;
22794;SDS011;11564;50.920;11.612;2022-12-07T10:14:38;3.67;;;2.40;;
22794;SDS011;11564;50.920;11.612;2022-12-07T10:22:36;8.90;;;2.20;;
22794;SDS011;11564;50.920;11.612;2022-12-07T10:25:09;5.53;;;2.40;;
22794;SDS011;11564;50.920;11.612;2022-12-07T10:27:43;5.70;;;3.13;;
22794;SDS011;11564;50.920;11.612;2022-12-07T10:30:23;2.97;;;2.17;;
22794;SDS011;11564;50.920;11.612;2022-12-07T10:32:48;3.73;;;2.50;;
22794;SDS011;11564;50.920;11.612;2022-12-07T10:35:19;5.90;;;2.70;;
22794;SDS011;11564;50.920;11.612;2022-12-07T10:37:47;2.30;;;1.90;;
22794;SDS011;11564;50.920;11.612;2022-12-07T10:40:27;2.27;;;2.17;;
22794;SDS011;11564;50.920;11.612;2022-12-07T10:43:03;4.07;;;2.27;;
22794;SDS011;11564;50.920;11.612;2022-12-07T10:48:33;2.30;;;2.10;;
22794;SDS011;11564;50.920;11.612;2022-12-07T10:51:33;3.30;;;2.70;;
22794;SDS011;11564;50.920;11.612;2022-12-07T10:54:59;3.93;;;2.40;;
22794;SDS011;11564;50.920;11.612;2022-12-07T11:00:52;4.60;;;2.43;;
22794;SDS011;11564;50.920;11.612;2022-12-07T11:03:29;5.63;;;2.23;;
22794;SDS011;11564;50.920;11.612;2022-12-07T11:06:20;2.43;;;2.20;;
22794;SDS011;11564;50.920;11.612;2022-12-07T11:08:57;2.50;;;2.00;;
22794;SDS011;11564;50.920;11.612;2022-12-07T11:11:38;2.53;;;2.27;;
22794;SDS011;11564;50.920;11.612;2022-12-07T11:17:15;2.40;;;2.00;;
22794;SDS011;11564;50.920;11.612;2022-12-07T11:22:35;5.00;;;1.50;;
22794;SDS011;11564;50.920;11.612;2022-12-07T11:33:49;4.30;;;1.80;;
22794;SDS011;11564;50.920;11.612;2022-12-07T11:36:31;2.40;;;1.73;;
22794;SDS011;11564;50.920;11.612;2022-12-07T11:39:04;2.63;;;1.50;;
22794;SDS011;11564;50.920;11.612;2022-12-07T11:41:37;1.57;;;1.47;;
22794;SDS011;11564;50.920;11.612;2022-12-07T11:44:07;3.50;;;1.90;;
22794;SDS011;11564;50.920;11.612;2022-12-07T11:46:46;1.67;;;1.50;;
22794;SDS011;11564;50.920;11.612;2022-12-07T11:52:07;7.33;;;1.77;;
22794;SDS011;11564;50.920;11.612;2022-12-07T11:54:59;2.70;;;1.70;;
22794;SDS011;11564;50.920;11.612;2022-12-07T11:57:28;3.80;;;1.80;;
22794;SDS011;11564;50.920;11.612;2022-12-07T12:00:05;4.60;;;1.20;;
22794;SDS011;11564;50.920;11.612;2022-12-07T12:02:41;2.90;;;1.50;;
22794;SDS011;11564;50.920;11.612;2022-12-07T12:05:35;8.30;;;1.57;;
22794;SDS011;11564;50.920;11.612;2022-12-07T12:08:15;2.37;;;1.60;;
22794;SDS011;11564;50.920;11.612;2022-12-07T12:13:34;1.37;;;1.27;;
22794;SDS011;11564;50.920;11.612;2022-12-07T12:21:55;2.50;;;1.53;;
22794;SDS011;11564;50.920;11.612;2022-12-07T12:24:33;1.93;;;1.47;;
22794;SDS011;11564;50.920;11.612;2022-12-07T12:27:04;2.67;;;1.33;;
22794;SDS011;11564;50.920;11.612;2022-12-07T12:29:33;5.60;;;1.20;;
22794;SDS011;11564;50.920;11.612;2022-12-07T12:32:12;3.97;;;1.30;;
22794;SDS011;11564;50.920;11.612;2022-12-07T12:37:37;8.40;;;1.50;;
22794;SDS011;11564;50.920;11.612;2022-12-07T12:42:43;2.13;;;1.53;;
22794;SDS011;11564;50.920;11.612;2022-12-07T12:45:20;3.00;;;1.60;;
22794;SDS011;11564;50.920;11.612;2022-12-07T12:50:26;2.30;;;1.37;;
22794;SDS011;11564;50.920;11.612;2022-12-07T12:52:54;1.93;;;1.50;;
22794;SDS011;11564;50.920;11.612;2022-12-07T13:00:44;1.53;;;1.43;;
22794;SDS011;11564;50.920;11.612;2022-12-07T13:03:28;3.30;;;1.73;;
22794;SDS011;11564;50.920;11.612;2022-12-07T13:08:44;5.60;;;1.83;;
22794;SDS011;11564;50.920;11.612;2022-12-07T13:17:12;5.17;;;2.17;;
22794;SDS011;11564;50.920;11.612;2022-12-07T13:19:58;3.40;;;2.40;;
22794;SDS011;11564;50.920;11.612;2022-12-07T13:27:55;3.37;;;3.07;;
22794;SDS011;11564;50.920;11.612;2022-12-07T13:30:23;3.70;;;3.37;;
22794;SDS011;11564;50.920;11.612;2022-12-07T13:32:56;4.13;;;3.00;;
22794;SDS011;11564;50.920;11.612;2022-12-07T13:35:30;5.20;;;3.13;;
22794;SDS011;11564;50.920;11.612;2022-12-07T13:38:03;8.97;;;3.50;;
22794;SDS011;11564;50.920;11.612;2022-12-07T13:40:40;6.37;;;3.70;;
22794;SDS011;11564;50.920;11.612;2022-12-07T13:43:12;6.20;;;3.60;;
22794;SDS011;11564;50.920;11.612;2022-12-07T13:45:41;4.13;;;3.27;;
22794;SDS011;11564;50.920;11.612;2022-12-07T13:48:41;3.50;;;2.90;;
22794;SDS011;11564;50.920;11.612;2022-12-07T13:51:16;3.77;;;2.67;;
22794;SDS011;11564;50.920;11.612;2022-12-07T13:53:51;3.03;;;1.77;;
22794;SDS011;11564;50.920;11.612;2022-12-07T13:56:20;6.43;;;1.90;;
22794;SDS011;11564;50.920;11.612;2022-12-07T13:58:47;1.80;;;1.70;;
22794;SDS011;11564;50.920;11.612;2022-12-07T14:01:13;2.17;;;1.97;;
22794;SDS011;11564;50.920;11.612;2022-12-07T14:03:39;2.67;;;1.60;;
22794;SDS011;11564;50.920;11.612;2022-12-07T14:06:07;1.87;;;1.50;;
22794;SDS011;11564;50.920;11.612;2022-12-07T14:08:45;1.30;;;1.20;;
22794;SDS011;11564;50.920;11.612;2022-12-07T14:11:16;6.57;;;1.50;;
22794;SDS011;11564;50.920;11.612;2022-12-07T14:13:45;1.87;;;1.67;;
22794;SDS011;11564;50.920;11.612;2022-12-07T14:18:50;1.50;;;1.40;;
22794;SDS011;11564;50.920;11.612;2022-12-07T14:21:17;1.63;;;1.53;;
22794;SDS011;11564;50.920;11.612;2022-12-07T14:26:44;1.97;;;1.40;;
22794;SDS011;11564;50.920;11.612;2022-12-07T14:31:53;2.23;;;1.10;;
22794;SDS011;11564;50.920;11.612;2022-12-07T14:34:20;4.37;;;1.20;;
22794;SDS011;11564;50.920;11.612;2022-12-07T14:36:46;1.00;;;1.00;;
22794;SDS011;11564;50.920;11.612;2022-12-07T14:39:12;3.40;;;1.20;;
22794;SDS011;11564;50.920;11.612;2022-12-07T14:41:37;1.30;;;0.83;;
22794;SDS011;11564;50.920;11.612;2022-12-07T14:44:15;3.80;;;1.27;;
22794;SDS011;11564;50.920;11.612;2022-12-07T14:46:42;1.70;;;1.43;;
22794;SDS011;11564;50.920;11.612;2022-12-07T14:49:07;2.30;;;1.20;;
22794;SDS011;11564;50.920;11.612;2022-12-07T14:51:33;2.30;;;1.40;;
22794;SDS011;11564;50.920;11.612;2022-12-07T14:54:02;0.73;;;0.73;;
22794;SDS011;11564;50.920;11.612;2022-12-07T14:56:30;3.70;;;1.00;;
22794;SDS011;11564;50.920;11.612;2022-12-07T14:58:56;1.20;;;0.90;;
22794;SDS011;11564;50.920;11.612;2022-12-07T15:01:22;5.43;;;1.30;;
22794;SDS011;11564;50.920;11.612;2022-12-07T15:03:48;1.27;;;1.17;;
22794;SDS011;11564;50.920;11.612;2022-12-07T15:06:15;1.53;;;0.90;;
22794;SDS011;11564;50.920;11.612;2022-12-07T15:08:42;1.43;;;1.17;;
22794;SDS011;11564;50.920;11.612;2022-12-07T15:11:16;2.70;;;2.00;;
22794;SDS011;11564;50.920;11.612;2022-12-07T15:13:42;2.97;;;1.70;;
22794;SDS011;11564;50.920;11.612;2022-12-07T15:16:26;4.73;;;2.33;;
22794;SDS011;11564;50.920;11.612;2022-12-07T15:18:52;1.67;;;1.57;;
22794;SDS011;11564;50.920;11.612;2022-12-07T15:21:17;3.20;;;2.03;;
22794;SDS011;11564;50.920;11.612;2022-12-07T15:23:43;2.00;;;1.90;;
22794;SDS011;11564;50.920;11.612;2022-12-07T15:26:10;2.43;;;2.17;;
22794;SDS011;11564;50.920;11.612;2022-12-07T15:28:36;4.53;;;1.60;;
22794;SDS011;11564;50.920;11.612;2022-12-07T15:31:02;2.40;;;1.50;;
22794;SDS011;11564;50.920;11.612;2022-12-07T15:33:27;5.50;;;1.90;;
22794;SDS011;11564;50.920;11.612;2022-12-07T15:35:53;4.63;;;3.13;;
22794;SDS011;11564;50.920;11.612;2022-12-07T15:38:19;3.43;;;1.77;;
22794;SDS011;11564;50.920;11.612;2022-12-07T15:40:48;2.40;;;1.87;;
22794;SDS011;11564;50.920;11.612;2022-12-07T15:43:13;1.70;;;1.60;;
22794;SDS011;11564;50.920;11.612;2022-12-07T15:45:57;4.07;;;1.90;;
22794;SDS011;11564;50.920;11.612;2022-12-07T15:48:24;4.13;;;1.60;;
22794;SDS011;11564;50.920;11.612;2022-12-07T15:50:50;1.70;;;1.60;;
22794;SDS011;11564;50.920;11.612;2022-12-07T15:53:16;5.60;;;1.90;;
22794;SDS011;11564;50.920;11.612;2022-12-07T15:55:42;4.57;;;2.20;;
22794;SDS011;11564;50.920;11.612;2022-12-07T15:58:07;2.20;;;2.00;;
22794;SDS011;11564;50.920;11.612;2022-12-07T16:00:33;3.13;;;2.30;;
22794;SDS011;11564;50.920;11.612;2022-12-07T16:02:58;1.80;;;1.70;;
22794;SDS011;11564;50.920;11.612;2022-12-07T16:05:24;3.13;;;1.80;;
22794;SDS011;11564;50.920;11.612;2022-12-07T16:07:50;2.00;;;1.90;;
22794;SDS011;11564;50.920;11.612;2022-12-07T16:10:15;4.53;;;2.10;;
22794;SDS011;11564;50.920;11.612;2022-12-07T16:12:41;8.53;;;5.33;;
22794;SDS011;11564;50.920;11.612;2022-12-07T16:15:07;10.80;;;6.23;;
22794;SDS011;11564;50.920;11.612;2022-12-07T16:17:33;9.13;;;5.50;;
22794;SDS011;11564;50.920;11.612;2022-12-07T16:19:58;6.30;;;4.87;;
22794;SDS011;11564;50.920;11.612;2022-12-07T16:22:24;11.47;;;6.80;;
22794;SDS011;11564;50.920;11.612;2022-12-07T16:24:49;13.20;;;5.03;;
22794;SDS011;11564;50.920;11.612;2022-12-07T16:27:16;4.30;;;1.57;;
22794;SDS011;11564;50.920;11.612;2022-12-07T16:29:42;2.80;;;1.90;;
22794;SDS011;11564;50.920;11.612;2022-12-07T16:32:07;2.13;;;1.93;;
22794;SDS011;11564;50.920;11.612;2022-12-07T16:34:33;2.60;;;1.90;;
22794;SDS011;11564;50.920;11.612;2022-12-07T16:36:59;3.90;;;1.70;;
22794;SDS011;11564;50.920;11.612;2022-12-07T16:39:24;1.87;;;1.60;;
22794;SDS011;11564;50.920;11.612;2022-12-07T16:41:50;1.87;;;1.77;;
22794;SDS011;11564;50.920;11.612;2022-12-07T16:44:17;5.30;;;1.67;;